sensor_id;sensor_type;location;lat;lon;timestamp;P1;durP1;ratioP1;P2;durP2;ratioP2
66609;SDS011;53468;48.276;14.416;2022-07-11T00:03:30;3.75;;;0.70;;
66609;SDS011;53468;48.276;14.416;2022-07-11T00:15:59;1.42;;;0.70;;
66609;SDS011;53468;48.276;14.416;2022-07-11T00:21:41;2.00;;;0.73;;
66609;SDS011;53468;48.276;14.416;2022-07-11T00:28:12;2.85;;;0.70;;
66609;SDS011;53468;48.276;14.416;2022-07-11T00:39:45;1.20;;;0.65;;
66609;SDS011;53468;48.276;14.416;2022-07-11T00:45:55;4.13;;;0.80;;
66609;SDS011;53468;48.276;14.416;2022-07-11T00:51:32;1.15;;;0.68;;
66609;SDS011;53468;48.276;14.416;2022-07-11T00:57:12;1.08;;;0.82;;
66609;SDS011;53468;48.276;14.416;2022-07-11T01:03:48;2.80;;;1.00;;
66609;SDS011;53468;48.276;14.416;2022-07-11T01:09:42;2.40;;;0.93;;
66609;SDS011;53468;48.276;14.416;2022-07-11T01:16:13;1.95;;;0.55;;
66609;SDS011;53468;48.276;14.416;2022-07-11T01:22:23;1.42;;;0.85;;
66609;SDS011;53468;48.276;14.416;2022-07-11T01:53:56;6.27;;;1.07;;
66609;SDS011;53468;48.276;14.416;2022-07-11T02:00:05;2.10;;;0.80;;
66609;SDS011;53468;48.276;14.416;2022-07-11T02:06:20;2.60;;;0.70;;
66609;SDS011;53468;48.276;14.416;2022-07-11T02:12:22;2.85;;;1.02;;
66609;SDS011;53468;48.276;14.416;2022-07-11T02:19:01;5.55;;;1.08;;
66609;SDS011;53468;48.276;14.416;2022-07-11T02:25:55;2.83;;;0.95;;
66609;SDS011;53468;48.276;14.416;2022-07-11T02:57:19;1.65;;;1.00;;
66609;SDS011;53468;48.276;14.416;2022-07-11T03:03:29;1.30;;;0.80;;
66609;SDS011;53468;48.276;14.416;2022-07-11T03:09:28;1.50;;;1.02;;
66609;SDS011;53468;48.276;14.416;2022-07-11T03:16:00;1.65;;;0.73;;
66609;SDS011;53468;48.276;14.416;2022-07-11T03:22:10;6.57;;;1.13;;
66609;SDS011;53468;48.276;14.416;2022-07-11T03:28:31;1.63;;;0.87;;
66609;SDS011;53468;48.276;14.416;2022-07-11T03:34:20;2.03;;;1.00;;
66609;SDS011;53468;48.276;14.416;2022-07-11T03:40:12;2.17;;;0.90;;
66609;SDS011;53468;48.276;14.416;2022-07-11T03:46:53;3.22;;;0.90;;
66609;SDS011;53468;48.276;14.416;2022-07-11T03:53:21;2.20;;;1.00;;
66609;SDS011;53468;48.276;14.416;2022-07-11T03:59:23;2.35;;;1.05;;
66609;SDS011;53468;48.276;14.416;2022-07-11T04:06:16;4.60;;;1.02;;
66609;SDS011;53468;48.276;14.416;2022-07-11T04:12:24;2.80;;;1.17;;
66609;SDS011;53468;48.276;14.416;2022-07-11T04:31:50;2.35;;;0.90;;
66609;SDS011;53468;48.276;14.416;2022-07-11T04:38:48;1.67;;;1.10;;
66609;SDS011;53468;48.276;14.416;2022-07-11T15:11:40;2.03;;;0.80;;
66609;SDS011;53468;48.276;14.416;2022-07-11T20:11:01;1.70;;;0.80;;
66609;SDS011;53468;48.276;14.416;2022-07-11T20:16:58;2.78;;;0.60;;
66609;SDS011;53468;48.276;14.416;2022-07-11T20:23:41;2.88;;;0.93;;
66609;SDS011;53468;48.276;14.416;2022-07-11T20:30:07;1.13;;;0.70;;
66609;SDS011;53468;48.276;14.416;2022-07-11T20:42:53;2.10;;;1.10;;
66609;SDS011;53468;48.276;14.416;2022-07-11T20:48:45;3.63;;;1.15;;
66609;SDS011;53468;48.276;14.416;2022-07-11T21:14:52;4.13;;;1.00;;
66609;SDS011;53468;48.276;14.416;2022-07-11T21:40:41;3.78;;;1.38;;
66609;SDS011;53468;48.276;14.416;2022-07-11T21:47:05;3.60;;;1.10;;
66609;SDS011;53468;48.276;14.416;2022-07-11T21:53:42;2.55;;;1.10;;
66609;SDS011;53468;48.276;14.416;2022-07-11T22:00:22;1.92;;;1.13;;
66609;SDS011;53468;48.276;14.416;2022-07-11T22:06:31;1.90;;;1.20;;
66609;SDS011;53468;48.276;14.416;2022-07-11T22:12:24;1.58;;;1.00;;
66609;SDS011;53468;48.276;14.416;2022-07-11T22:25:18;1.67;;;0.93;;
66609;SDS011;53468;48.276;14.416;2022-07-11T22:31:32;1.60;;;0.75;;
66609;SDS011;53468;48.276;14.416;2022-07-11T23:03:34;1.92;;;1.20;;
66609;SDS011;53468;48.276;14.416;2022-07-11T23:16:38;2.13;;;1.20;;
66609;SDS011;53468;48.276;14.416;2022-07-11T23:22:53;1.90;;;1.15;;
66609;SDS011;53468;48.276;14.416;2022-07-11T23:29:43;1.98;;;1.35;;
66609;SDS011;53468;48.276;14.416;2022-07-11T23:36:10;2.08;;;1.35;;
66609;SDS011;53468;48.276;14.416;2022-07-11T23:42:27;4.32;;;1.75;;
66609;SDS011;53468;48.276;14.416;2022-07-11T23:48:37;3.13;;;1.98;;
